Tiempo atmosférico en la estación meteorológica de Fonfría, Teruel (1262 m.)



Fecha
DESCASC
Temp. máxima en grados centígrados (hora)
DESCASC
Temp. mínima en grados centígrados (hora)
DESCASC
Temp. media en grados centígrados
DESCASC
Racha de viento máxima en m/sg (hora)
DESCASC
Velocidad máxima media en intervalos de 10 minutos(hora)
DESCASC
Precipitaciones diarias en mm
DESCASC
Precipitaciones de 00:00 a 06:00 en mm
DESCASC
Precipitaciones de 06:00 a 12:00 en mm
DESCASC
Precipitaciones de 12:00 a 18:00 en mm
DESCASC
Precipitaciones de 18:00 a 24:00 en mm
DESCASC
18-01-2018 11.6 (14:10) -0.8 (05:50) 5.4 7.78 (00:40) 5 (00:40) 0 0 0 0 0
17-01-2018 7.2 (12:30) 0.2 (23:00) 3.7 16.67 (04:10) 11.11 (04:50) 0 0 0 0 0
16-01-2018 8.1 (15:20) -0.3 (02:20) 3.9 17.78 (22:50) 10 (22:30) 0 0 0 0 0
15-01-2018 4.2 (15:10) -2.2 (09:10) 1 15.83 (21:50) 10.83 (21:50) 0 0 0 0 0
14-01-2018 2.5 (15:20) -0.8 (-00:0) 0.8 13.89 (02:00) 8.33 (03:20) 0.4 0.4 0 0 0
13-01-2018 4.5 (13:50) -0.9 (-00:0) 1.8 9.17 (12:40) 6.94 (12:40) 0.8 0 0 0 0.8
12-01-2018 2.8 (15:10) -0.7 (-00:0) 1 11.67 (01:20) 8.33 (01:20) 1.2 0 1.2 0 0
11-01-2018 2 (13:10) -1.2 (-00:0) 0.4 17.22 (01:40) 10.83 (01:20) 1.8 0 0 0 1.8
10-01-2018 3.4 (13:40) 0.3 (00:00) 1.9 17.22 (23:10) 10.28 (22:50) 0.6 0.6 0 0 0
09-01-2018 3.2 (13:30) -4 (-00:0) -0.4 13.61 (11:00) 10 (11:10) 2.4 0 0 0 2.4
08-01-2018 4.8 (11:40) -4.1 (-00:0) 0.4 5 (17:50) 3.61 (08:30) 0 0 0 0 0
07-01-2018 3.3 (14:40) -3.2 (-00:0) 0 9.17 (13:50) 6.39 (12:40) 1.4 0 1.2 0.2 0
06-01-2018 4.7 (05:50) -1.2 (-00:0) 1.7 10.56 (02:50) 6.94 (03:10) 4.8 0 0.2 0.2 4.4
05-01-2018 9.3 (12:50) 3.6 (00:00) 6.5 20.83 (05:10) 14.72 (05:10) 0 0 0 0 0
04-01-2018 11 (13:50) 6 (23:50) 8.5 18.06 (18:30) 12.78 (18:40) 0 0 0 0 0
03-01-2018 11.4 (15:10) 6.6 (00:00) 9 15.83 (11:10) 11.11 (11:30) 0 0 0 0 0
02-01-2018 9 (13:40) 4 (00:00) 6.5 17.5 (07:50) 11.67 (07:40) 0.4 0.4 0 0 0
01-01-2018 7 (15:50) -1 (-00:0) 3 21.67 (14:20) 12.5 (02:50) 0 0 0 0 0
31-12-2017 9 (15:20) 1 (00:00) 5 21.11 (19:50) 12.78 (19:50) 1.2 0 0 0 1.2
30-12-2017 11 (14:20) 5.5 (00:00) 8.3 14.72 (10:10) 10.28 (12:10) 0.2 0 0.2 0 0
29-12-2017 9.6 (14:50) 2.6 (00:00) 6.1 16.11 (08:50) 11.39 (08:30) 0.2 0 0.2 0 0
28-12-2017 6.9 (16:20) 1 (00:00) 4 17.22 (16:50) 11.11 (16:30) 2.2 0 0.8 1.2 0.2
27-12-2017 3.9 (01:20) 0.3 (00:00) 2.1 20.83 (04:30) 11.94 (04:30) 5.8 4.2 0.2 0.4 1
26-12-2017 4.1 (12:30) 0.7 (00:00) 2.4 18.61 (22:20) 11.11 (22:10) 1.2 1.2 0 0 0
25-12-2017 11.9 (13:50) 1.3 (00:00) 6.6 8.33 (18:30) 6.39 (02:30) 0 0 0 0 0
24-12-2017 13.7 (15:30) 1 (00:00) 7.3 11.39 (10:50) 8.61 (05:50) 0 0 0 0 0

Gráficas

Temp. máximas Temp. mínimas Temp. medias Precipitaciones Rachas de viento máximas Velocidades máximas media en intervalos de 10 minutos

Datos horarios

Fecha y hora oficial Temperatura (ºC) Velocidad del viento (km/h) Dirección del viento Racha (km/h) Dirección de racha Precipitación (mm) Presión (hPa) Tendencia (hPa) Humedad (%)
2018-01-22 23:00:00 4.6 10 Noroeste 16 Noroeste 0 -- -- 94
2018-01-22 22:00:00 3.7 10 Oeste 13 Noroeste 0 -- -- 93
2018-01-22 21:00:00 4 9 Noroeste 13 Oeste 0 -- -- 93
2018-01-22 20:00:00 5 8 Oeste 14 Noroeste 0 -- -- 90
2018-01-22 19:00:00 4.7 9 Oeste 15 Oeste 0 -- -- 88
2018-01-22 18:00:00 6.4 15 Oeste 22 Oeste 0 -- -- 80
2018-01-22 17:00:00 9.2 6 Oeste 12 Oeste 0 -- -- 62
2018-01-22 16:00:00 10.9 8 Noroeste 18 Noroeste 0 -- -- 53
2018-01-22 15:00:00 10.5 10 Noroeste 23 Norte 0 -- -- 59
2018-01-22 14:00:00 8.7 16 Norte 25 Noroeste 0 -- -- 72
2018-01-22 13:00:00 8.6 15 Oeste 29 Noroeste 0 -- -- 75
2018-01-22 12:00:00 6.5 16 Noroeste 23 Noroeste 0 -- -- 84
2018-01-22 11:00:00 6.3 11 Noroeste 19 Sudoeste 0 -- -- 86
2018-01-22 10:00:00 5.6 5 Noroeste 19 Oeste 0 -- -- 88
2018-01-22 09:00:00 4 9 Oeste 36 Sudoeste 0 -- -- 97
2018-01-22 08:00:00 3 17 Oeste 32 Sudoeste 0 -- -- 99
2018-01-22 07:00:00 3.6 2 Sudoeste 19 Oeste 0 -- -- 99
2018-01-22 06:00:00 3.8 3 Nordeste 30 Oeste 0 -- -- 99
2018-01-22 05:00:00 4.1 9 Sudoeste 28 Sudoeste 0 -- -- 99
2018-01-22 04:00:00 4.5 12 Sur 19 Sur 0 -- -- 98
2018-01-22 03:00:00 4.3 13 Noroeste 40 Oeste 0 -- -- 97
2018-01-22 02:00:00 4.7 24 Oeste 40 Oeste 0 -- -- 98
2018-01-22 01:00:00 4.6 14 Noroeste 22 Noroeste 0 -- -- 98
2018-01-22 00:00:00 4.3 13 Noroeste 26 Oeste 0 -- -- 97
2018-01-21 23:00:00 5 18 Noroeste 26 Oeste 0 -- -- 97
2018-01-21 22:00:00 5.3 12 Oeste 25 Noroeste 0 -- -- 96
2018-01-21 21:00:00 5.7 14 Oeste 25 Noroeste 0 -- -- 95
2018-01-21 20:00:00 6.1 14 Noroeste 21 Noroeste 0 -- -- 95
2018-01-21 19:00:00 6.6 10 Oeste 29 Noroeste 0 -- -- 90
2018-01-21 18:00:00 8.2 21 Noroeste 32 Noroeste 0 -- -- 92
2018-01-21 17:00:00 8.7 18 Noroeste 36 Oeste 0 -- -- 83
2018-01-21 16:00:00 10.3 22 Oeste 41 Noroeste 0 -- -- 77
2018-01-21 15:00:00 9.9 29 Noroeste 42 Noroeste 0 -- -- 78
2018-01-21 14:00:00 9.2 31 Noroeste 44 Noroeste 0 -- -- 81
2018-01-21 13:00:00 8 25 Noroeste 39 Noroeste 0 -- -- 86
2018-01-21 12:00:00 8 22 Noroeste 33 Noroeste 0 -- -- 85
2018-01-21 11:00:00 7.1 20 Noroeste 28 Oeste 0 -- -- 98
2018-01-21 10:00:00 4.5 18 Noroeste 31 Noroeste 0 -- -- 99
2018-01-21 09:00:00 4.4 19 Noroeste 31 Oeste 0 -- -- 98
2018-01-21 08:00:00 4.4 19 Oeste 33 Oeste 0 -- -- 98
2018-01-21 07:00:00 4.4 21 Oeste 38 Oeste 0 -- -- 98
2018-01-21 06:00:00 4.5 24 Oeste 43 Oeste 0 -- -- 97
2018-01-21 05:00:00 4.5 26 Oeste 45 Oeste 0 -- -- 97
2018-01-21 04:00:00 4.8 27 Oeste 55 Oeste 0 -- -- 96
2018-01-21 03:00:00 4.9 35 Oeste 55 Oeste 0 -- -- 94
2018-01-21 02:00:00 4.7 33 Oeste 57 Oeste 0 -- -- 92
2018-01-21 01:00:00 4.7 36 Oeste 59 Oeste 0 -- -- 89
2018-01-21 00:00:00 5.2 35 Oeste 54 Oeste 0 -- -- 86
2018-01-20 23:00:00 5.5 32 Oeste 55 Oeste 0 -- -- 83
2018-01-20 22:00:00 5.7 30 Oeste 52 Oeste 0 -- -- 82
2018-01-20 21:00:00 5.7 31 Oeste 52 Oeste 0 -- -- 78
2018-01-20 20:00:00 5.6 33 Oeste 53 Oeste 0 -- -- 71
2018-01-20 19:00:00 6.2 26 Oeste 45 Oeste 0 -- -- 64
2018-01-20 18:00:00 7.2 26 Oeste 41 Oeste 0 -- -- 61
2018-01-20 17:00:00 7.8 26 Oeste 44 Noroeste 0 -- -- 54
2018-01-20 16:00:00 8.9 28 Oeste 53 Noroeste 0 -- -- 49
2018-01-20 15:00:00 8.8 36 Oeste 58 Noroeste 0 -- -- 51
2018-01-20 14:00:00 8.4 35 Oeste 59 Noroeste 0 -- -- 46
2018-01-20 13:00:00 8.7 33 Oeste 54 Oeste 0 -- -- 41
2018-01-20 12:00:00 7.3 31 Oeste 56 Oeste 0 -- -- 47
2018-01-20 11:00:00 5.4 27 Noroeste 47 Oeste 0 -- -- 67
2018-01-20 10:00:00 4.1 30 Oeste 49 Oeste 0 -- -- 74
2018-01-20 09:00:00 2.8 27 Oeste 46 Oeste 0 -- -- 81
2018-01-20 08:00:00 2.9 32 Oeste 49 Oeste 0 -- -- 80
2018-01-20 07:00:00 1.8 23 Oeste 36 Oeste 0 -- -- 83
2018-01-20 06:00:00 -0.9 12 Noroeste 14 Noroeste 0 -- -- 93
2018-01-20 05:00:00 -0.6 12 Noroeste 26 Oeste 0 -- -- 90
2018-01-20 04:00:00 -0.2 14 Noroeste 24 Oeste 0 -- -- 91
2018-01-20 03:00:00 1.1 18 Oeste 31 Oeste 0 -- -- 85
2018-01-20 02:00:00 1.2 18 Oeste 32 Oeste 0 -- -- 87
2018-01-20 01:00:00 1.6 19 Oeste 31 Noroeste 0 -- -- 86
2018-01-20 00:00:00 1.3 14 Noroeste 28 Noroeste 0 -- -- 93
2018-01-19 23:00:00 0.9 11 Noroeste 15 Noroeste 0 -- -- 95
2018-01-19 22:00:00 2 12 Noroeste 37 Noroeste 0 -- -- 93
2018-01-19 21:00:00 3.1 20 Noroeste 41 Noroeste 0 -- -- 97
2018-01-19 20:00:00 3.5 23 Norte 36 Norte 0 -- -- 98
2018-01-19 19:00:00 4 22 Norte 35 Noroeste 0 -- -- 97
2018-01-19 18:00:00 5.5 18 Noroeste 31 Norte 0 -- -- 92
2018-01-19 17:00:00 6.4 17 Norte 28 Noroeste 0 -- -- 85
2018-01-19 16:00:00 8.2 16 Noroeste 23 Norte 0 -- -- 70
2018-01-19 15:00:00 8.1 11 Noroeste 27 Noroeste 0 -- -- 69
2018-01-19 14:00:00 8.3 16 Noroeste 27 Norte 0 -- -- 67
2018-01-19 13:00:00 7.8 15 Noroeste 34 Noroeste 0 -- -- 69
2018-01-19 12:00:00 6.9 22 Noroeste 31 Noroeste 0 -- -- 75
2018-01-19 11:00:00 5 10 Noroeste 22 Noroeste 0 -- -- 84
2018-01-19 10:00:00 3.9 17 Noroeste 28 Oeste 0 -- -- 89
2018-01-19 09:00:00 3.2 20 Noroeste 33 Noroeste 0 -- -- 94
2018-01-19 08:00:00 2.8 17 Noroeste 26 Noroeste 0 -- -- 94
2018-01-19 07:00:00 3.2 18 Noroeste 25 Oeste 0 -- -- 92
2018-01-19 06:00:00 3.4 12 Noroeste 24 Noroeste 0 -- -- 89
2018-01-19 05:00:00 2.3 10 Oeste 17 Noroeste 0 -- -- 94
2018-01-19 04:00:00 2.8 6 Oeste 21 Noroeste 0 -- -- 91
2018-01-19 03:00:00 2.6 11 Noroeste 26 Noroeste 0 -- -- 88
2018-01-19 02:00:00 3.3 6 Oeste 10 Oeste 0 -- -- 75
2018-01-19 01:00:00 4.2 0 Calma 8 Norte 0 -- -- 72
2018-01-19 00:00:00 4.5 5 Oeste 6 Sudoeste 0 -- -- 74
2018-01-18 23:00:00 4.9 0 Calma 10 Oeste 0 -- -- 73
2018-01-18 22:00:00 4.4 4 Oeste 10 Sudoeste 0 -- -- 74
2018-01-18 21:00:00 6.2 4 Sudoeste 8 Oeste 0 -- -- 58
2018-01-18 20:00:00 4.3 4 Oeste 12 Oeste 0 -- -- 64
2018-01-18 19:00:00 5.6 8 Oeste 10 Sudoeste 0 -- -- 60
2018-01-18 18:00:00 6.9 5 Oeste 8 Sudoeste 0 -- -- 55
2018-01-18 17:00:00 9.7 5 Oeste 15 Noroeste 0 -- -- 43
2018-01-18 16:00:00 10.7 13 Noroeste 15 Noroeste 0 -- -- 45
2018-01-18 15:00:00 10.7 11 Noroeste 17 Noroeste 0 -- -- 49
2018-01-18 14:00:00 11.5 8 Oeste 15 Noroeste 0 -- -- 40
2018-01-18 13:00:00 10.2 9 Noroeste 14 Noroeste 0 -- -- 57
2018-01-18 12:00:00 8.6 9 Noroeste 12 Noroeste 0 -- -- 57
2018-01-18 11:00:00 5.9 2 Nordeste 12 Noroeste 0 -- -- 72
2018-01-18 10:00:00 3.6 3 Noroeste 6 Oeste 0 -- -- 76
2018-01-18 09:00:00 1.4 5 Oeste 19 Sudoeste 0 -- -- 72
2018-01-18 08:00:00 0.6 7 Sudoeste 19 Sudoeste 0 -- -- 79
2018-01-18 07:00:00 -0.1 3 Noroeste 14 Oeste 0 -- -- 85
2018-01-18 06:00:00 -0.7 6 Oeste 10 Noroeste 0 -- -- 92
2018-01-18 05:00:00 -0.3 5 Oeste 10 Oeste 0 -- -- 90
2018-01-18 04:00:00 -0.2 4 Oeste 9 Noroeste 0 -- -- 93
2018-01-18 03:00:00 -0.3 8 Sudoeste 18 Sudoeste 0 -- -- 95
2018-01-18 02:00:00 0.2 12 Noroeste 28 Oeste 0 -- -- 94
2018-01-18 01:00:00 0.2 11 Oeste 28 Oeste 0 -- -- 94
2018-01-18 00:00:00 0.2 12 Oeste 21 Oeste 0 -- -- 94
2018-01-17 23:00:00 0.2 12 Oeste 24 Noroeste 0 -- -- 92
2018-01-17 22:00:00 1 21 Noroeste 34 Noroeste 0 -- -- 94
2018-01-17 21:00:00 1.2 26 Noroeste 40 Noroeste 0 -- -- 93
2018-01-17 20:00:00 1.4 15 Noroeste 26 Noroeste 0 -- -- 91
2018-01-17 19:00:00 1.5 14 Noroeste 22 Noroeste 0 -- -- 85
2018-01-17 18:00:00 2.5 10 Oeste 27 Noroeste 0 -- -- 82
2018-01-17 17:00:00 4.4 20 Noroeste 32 Norte 0 -- -- 75
2018-01-17 16:00:00 5.3 23 Norte 36 Noroeste 0 -- -- 78
2018-01-17 15:00:00 5.2 24 Norte 39 Norte 0 -- -- 81
2018-01-17 14:00:00 7 32 Noroeste 41 Noroeste 0 -- -- 68
2018-01-17 13:00:00 5.8 21 Norte 36 Noroeste 0 -- -- 70
2018-01-17 12:00:00 6.9 22 Noroeste 41 Noroeste 0 -- -- 78
2018-01-17 11:00:00 5.1 24 Noroeste 45 Oeste 0 -- -- 94
2018-01-17 10:00:00 4.6 31 Noroeste 48 Oeste 0 -- -- 96
2018-01-17 09:00:00 4.6 24 Noroeste 38 Oeste 0 -- -- 95
2018-01-17 08:00:00 5 26 Noroeste 50 Oeste 0 -- -- 92
2018-01-17 07:00:00 5.4 27 Oeste 58 Oeste 0 -- -- 90
2018-01-17 06:00:00 5.3 31 Oeste 57 Oeste 0 -- -- 91
2018-01-17 05:00:00 5.6 37 Oeste 60 Oeste 0 -- -- 91
2018-01-17 04:00:00 5.6 32 Oeste 49 Oeste 0 -- -- 91
2018-01-17 03:00:00 5.2 25 Oeste 46 Oeste 0 -- -- 92
2018-01-17 02:00:00 5.1 16 Oeste 39 Oeste 0 -- -- 92
2018-01-17 01:00:00 5.3 14 Oeste 40 Oeste 0 -- -- 92
2018-01-17 00:00:00 5.2 21 Oeste 41 Oeste 0 -- -- 92
2018-01-16 23:00:00 5.9 21 Oeste 64 Oeste 0 -- -- 90
2018-01-16 22:00:00 6 34 Oeste 57 Oeste 0 -- -- 91
2018-01-16 21:00:00 5.7 27 Oeste 52 Oeste 0 -- -- 92
2018-01-16 20:00:00 5.1 11 Noroeste 28 Norte 0 -- -- 96
2018-01-16 19:00:00 5.2 18 Norte 28 Noroeste 0 -- -- 97
2018-01-16 18:00:00 5.8 18 Noroeste 27 Oeste 0 -- -- 93
2018-01-16 17:00:00 6.4 13 Noroeste 37 Oeste 0 -- -- 92
2018-01-16 16:00:00 6.9 26 Oeste 42 Oeste 0 -- -- 88
2018-01-16 15:00:00 7 28 Oeste 47 Oeste 0 -- -- 90
2018-01-16 14:00:00 6.5 28 Oeste 50 Oeste 0 -- -- 88
2018-01-16 13:00:00 6.4 25 Oeste 45 Oeste 0 -- -- 87
2018-01-16 12:00:00 5.3 27 Oeste 55 Oeste 0 -- -- 89
2018-01-16 11:00:00 4.7 33 Oeste 58 Oeste 0 -- -- 90
2018-01-16 10:00:00 4 35 Oeste 53 Oeste 0 -- -- 91
2018-01-16 09:00:00 3.5 36 Oeste 54 Oeste 0 -- -- 89
2018-01-16 08:00:00 2.2 28 Sudoeste 48 Oeste 0 -- -- 81
2018-01-16 07:00:00 1.7 33 Sudoeste 48 Sudoeste 0 -- -- 80
2018-01-16 06:00:00 2.4 33 Sudoeste 46 Sudoeste 0 -- -- 77
2018-01-16 05:00:00 1 32 Sudoeste 46 Sudoeste 0 -- -- 85
2018-01-16 04:00:00 1.1 22 Sudoeste 40 Sudoeste 0 -- -- 85
2018-01-16 03:00:00 0.6 25 Sudoeste 36 Sudoeste 0 -- -- 87
2018-01-16 02:00:00 -0.1 20 Sudoeste 49 Sudoeste 0 -- -- 90
2018-01-16 01:00:00 0.6 25 Sudoeste 40 Sudoeste 0 -- -- 86
2018-01-16 00:00:00 1.2 21 Oeste 50 Sudoeste 0 -- -- 83
2018-01-15 23:00:00 1.6 32 Oeste 53 Oeste 0 -- -- 80
2018-01-15 22:00:00 1.7 35 Oeste 57 Sudoeste 0 -- -- 79
2018-01-15 21:00:00 1.7 32 Sudoeste 47 Oeste 0 -- -- 82
2018-01-15 20:00:00 2.1 26 Sudoeste 48 Sudoeste 0 -- -- 79
2018-01-15 19:00:00 2.4 35 Sudoeste 48 Sudoeste 0 -- -- 76
2018-01-15 18:00:00 2 20 Oeste 32 Oeste 0 -- -- 83
2018-01-15 17:00:00 2.6 12 Oeste 26 Oeste 0 -- -- 84
2018-01-15 16:00:00 3.7 17 Oeste 29 Oeste 0 -- -- 81
2018-01-15 15:00:00 4 11 Oeste 27 Sudoeste 0 -- -- 76
2018-01-15 14:00:00 3.6 14 Sudoeste 30 Sudoeste 0 -- -- 81
2018-01-15 13:00:00 2.8 16 Sudoeste 24 Sudoeste 0 -- -- 84
2018-01-15 12:00:00 1 8 Oeste 20 Noroeste 0 -- -- 99
2018-01-15 11:00:00 -0.8 13 Noroeste 17 Noroeste 0 -- -- 99
2018-01-15 10:00:00 -1.1 8 Noroeste 17 Noroeste 0 -- -- 99
2018-01-15 09:00:00 -2.1 7 Noroeste 18 Noroeste 0 -- -- 98
2018-01-15 08:00:00 -1.7 13 Noroeste 28 Noroeste 0 -- -- 98
2018-01-15 07:00:00 -1.2 19 Noroeste 26 Noroeste 0 -- -- 98
2018-01-15 06:00:00 -0.7 18 Noroeste 26 Noroeste 0 -- -- 98
2018-01-15 05:00:00 -0.9 17 Noroeste 27 Noroeste 0 -- -- 98
2018-01-15 04:00:00 -0.6 17 Noroeste 31 Noroeste 0 -- -- 99
2018-01-15 03:00:00 -0.6 15 Noroeste 24 Noroeste 0 -- -- 99
2018-01-15 02:00:00 -0.9 19 Noroeste 26 Noroeste 0 -- -- 99
2018-01-15 01:00:00 -0.8 17 Noroeste 26 Noroeste 0 -- -- 99
2018-01-15 00:00:00 -0.7 19 Noroeste 28 Oeste 0 -- -- 99
2018-01-14 23:00:00 -0.4 18 Noroeste 24 Noroeste 0 -- -- 99
2018-01-14 22:00:00 -0.2 10 Oeste 20 Noroeste 0 -- -- 98
2018-01-14 21:00:00 -0.1 12 Noroeste 20 Noroeste 0 -- -- 98
2018-01-14 20:00:00 0.2 15 Oeste 22 Oeste 0 -- -- 97
2018-01-14 19:00:00 0.3 12 Noroeste 20 Oeste 0 -- -- 97
2018-01-14 18:00:00 0.4 15 Noroeste 26 Noroeste 0 -- -- 95
2018-01-14 17:00:00 0.8 19 Noroeste 27 Noroeste 0 -- -- 93
2018-01-14 16:00:00 1.6 15 Noroeste 25 Oeste 0 -- -- 87
2018-01-14 15:00:00 1.8 17 Noroeste 32 Noroeste 0 -- -- 87
2018-01-14 14:00:00 0.6 18 Noroeste 29 Noroeste 0 -- -- 89
2018-01-14 13:00:00 1.1 14 Oeste 30 Oeste 0 -- -- 88
2018-01-14 12:00:00 0.8 14 Oeste 34 Oeste 0 -- -- 90
2018-01-14 11:00:00 0.5 20 Oeste 34 Oeste 0 -- -- 89
2018-01-14 10:00:00 -0.2 14 Oeste 34 Oeste 0 -- -- 94
2018-01-14 09:00:00 -0.7 20 Oeste 40 Oeste 0 -- -- 94
2018-01-14 08:00:00 -0.5 24 Oeste 39 Oeste 0 -- -- 93
2018-01-14 07:00:00 -0.6 22 Oeste 45 Sudoeste 0 -- -- 95
2018-01-14 06:00:00 -0.6 24 Oeste 39 Oeste 0.2 -- -- 95
2018-01-14 05:00:00 -0.4 14 Oeste 41 Oeste 0 -- -- 94
2018-01-14 04:00:00 -0.3 21 Oeste 45 Oeste 0 -- -- 94
2018-01-14 03:00:00 -0.2 25 Oeste 44 Oeste 0 -- -- 95
2018-01-14 02:00:00 -0.1 30 Oeste 50 Oeste 0.2 -- -- 95
2018-01-14 01:00:00 -0.1 21 Oeste 37 Oeste 0 -- -- 96
2018-01-14 00:00:00 0 19 Oeste 31 Oeste 0 -- -- 96
2018-01-13 23:00:00 0.2 17 Oeste 25 Oeste 0 -- -- 96
2018-01-13 22:00:00 0 8 Oeste 17 Sudoeste 0 -- -- 96
2018-01-13 21:00:00 0.1 7 Oeste 14 Sudoeste 0.8 -- -- 94
2018-01-13 20:00:00 0.4 8 Sur 19 Sur 0 -- -- 91
2018-01-13 19:00:00 1.3 8 Sur 22 Oeste 0 -- -- 85
2018-01-13 18:00:00 2.6 8 Sudoeste 11 Oeste 0 -- -- 70
2018-01-13 17:00:00 3.6 5 Sudoeste 24 Sur 0 -- -- 65
2018-01-13 16:00:00 4 15 Sur 30 Sur 0 -- -- 58
2018-01-13 15:00:00 3.9 17 Sur 26 Sur 0 -- -- 60
2018-01-13 14:00:00 4.5 17 Sur 32 Sur 0 -- -- 59
2018-01-13 13:00:00 3.6 24 Sur 33 Sudoeste 0 -- -- 63
2018-01-13 12:00:00 3 24 Sur 31 Sur 0 -- -- 66
2018-01-13 11:00:00 3.6 12 Sur 26 Sur 0 -- -- 64
2018-01-13 10:00:00 2.2 13 Sudoeste 22 Sudoeste 0 -- -- 61
2018-01-13 09:00:00 -0.1 7 Sudeste 24 Sudoeste 0 -- -- 75
2018-01-13 08:00:00 0 12 Sur 28 Sudoeste 0 -- -- 78
2018-01-13 07:00:00 -0.5 4 Oeste 16 Sudoeste 0 -- -- 81
2018-01-13 06:00:00 0 10 Sudoeste 27 Sur 0 -- -- 80
2018-01-13 05:00:00 -0.2 19 Sur 27 Sudoeste 0 -- -- 79
2018-01-13 04:00:00 0.4 21 Sudoeste 27 Sudoeste 0 -- -- 77
2018-01-13 03:00:00 -0.7 3 Norte 12 Sudoeste 0 -- -- 78
2018-01-13 02:00:00 -0.6 0 Calma 14 Oeste 0 -- -- 83
2018-01-13 01:00:00 0 4 Noroeste 25 Sudoeste 0 -- -- 83
2018-01-13 00:00:00 0.2 3 Sur 13 Oeste 0 -- -- 81
2018-01-12 23:00:00 1.1 6 Oeste 26 Sudoeste 0 -- -- 79
2018-01-12 22:00:00 1.5 17 Oeste 32 Sudoeste 0 -- -- 76
2018-01-12 21:00:00 1 15 Oeste 29 Oeste 0 -- -- 77
2018-01-12 20:00:00 0.8 21 Oeste 31 Oeste 0 -- -- 81
2018-01-12 19:00:00 0.7 21 Oeste 28 Oeste 0 -- -- 85
2018-01-12 18:00:00 0.8 11 Oeste 25 Oeste 0 -- -- 86
2018-01-12 17:00:00 1.6 14 Oeste 24 Oeste 0 -- -- 86
2018-01-12 16:00:00 2.4 15 Oeste 28 Oeste 0 -- -- 84
2018-01-12 15:00:00 2.3 11 Oeste 29 Noroeste 0 -- -- 87
2018-01-12 14:00:00 1.8 20 Noroeste 34 Noroeste 0 -- -- 90
2018-01-12 13:00:00 1.6 14 Oeste 26 Oeste 0 -- -- 93
2018-01-12 12:00:00 1.1 10 Noroeste 24 Noroeste 0.4 -- -- 94
2018-01-12 11:00:00 0.5 15 Noroeste 26 Oeste 0.8 -- -- 100
2018-01-12 10:00:00 -0.5 19 Noroeste 30 Noroeste 0 -- -- 99
2018-01-12 09:00:00 -0.7 15 Noroeste 27 Oeste 0 -- -- 100
2018-01-12 08:00:00 -0.4 16 Noroeste 28 Noroeste 0 -- -- 99
2018-01-12 07:00:00 -0.1 19 Noroeste 32 Noroeste 0 -- -- 100
2018-01-12 06:00:00 -0.5 13 Oeste 27 Oeste 0 -- -- 100
2018-01-12 05:00:00 -0.4 19 Noroeste 30 Noroeste 0 -- -- 100
2018-01-12 04:00:00 -0.5 18 Noroeste 31 Noroeste 0 -- -- 99
2018-01-12 03:00:00 -0.4 20 Noroeste 32 Noroeste 0 -- -- 99
2018-01-12 02:00:00 -0.6 23 Noroeste 42 Oeste 0 -- -- 99
2018-01-12 01:00:00 -0.6 26 Noroeste 39 Oeste 0 -- -- 99
2018-01-12 00:00:00 -0.7 23 Noroeste 44 Oeste 0.2 -- -- 98
2018-01-11 23:00:00 -0.6 26 Oeste 51 Oeste 0.2 -- -- 98
2018-01-11 22:00:00 -0.6 30 Oeste 44 Oeste 0.6 -- -- 98
2018-01-11 21:00:00 -0.7 25 Oeste 45 Oeste 0.8 -- -- 97
2018-01-11 20:00:00 -0.4 30 Oeste 52 Oeste 0 -- -- 95
2018-01-11 19:00:00 0.5 32 Oeste 49 Oeste 0 -- -- 86
2018-01-11 18:00:00 0.9 26 Oeste 41 Oeste 0 -- -- 81
2018-01-11 17:00:00 1.2 23 Oeste 43 Oeste 0 -- -- 79
2018-01-11 16:00:00 1.8 23 Oeste 45 Oeste 0 -- -- 76
2018-01-11 15:00:00 1.3 31 Oeste 44 Oeste 0 -- -- 78
2018-01-11 14:00:00 1.3 28 Noroeste 54 Oeste 0 -- -- 78
2018-01-11 13:00:00 1.5 32 Oeste 49 Oeste 0 -- -- 80
2018-01-11 12:00:00 0.5 25 Oeste 48 Oeste 0 -- -- 83
2018-01-11 11:00:00 0 32 Oeste 54 Noroeste 0 -- -- 84
2018-01-11 10:00:00 -0.1 35 Oeste 55 Oeste 0 -- -- 86
2018-01-11 09:00:00 0 30 Oeste 54 Oeste 0 -- -- 87
2018-01-11 08:00:00 -0.2 31 Oeste 49 Oeste 0 -- -- 89
2018-01-11 07:00:00 -0.7 26 Oeste 48 Oeste 0 -- -- 93
2018-01-11 06:00:00 -0.8 25 Oeste 51 Oeste 0 -- -- 89
2018-01-11 05:00:00 -1 23 Oeste 47 Oeste 0 -- -- 87
2018-01-11 04:00:00 -0.8 30 Oeste 50 Oeste 0 -- -- 84
2018-01-11 03:00:00 -0.7 29 Oeste 54 Oeste 0 -- -- 88
2018-01-11 02:00:00 -0.5 32 Oeste 62 Oeste 0 -- -- 86
2018-01-11 01:00:00 0 30 Oeste 53 Noroeste 0 -- -- 85
2018-01-11 00:00:00 0.5 32 Oeste 62 Oeste 0 -- -- 82
2018-01-10 23:00:00 1 37 Noroeste 59 Oeste 0 -- -- 86
2018-01-10 22:00:00 1.7 28 Oeste 59 Noroeste 0 -- -- 84
2018-01-10 21:00:00 1.8 31 Oeste 50 Oeste 0 -- -- 88
2018-01-10 20:00:00 2.5 17 Oeste 40 Oeste 0 -- -- 89
2018-01-10 19:00:00 2.4 18 Oeste 48 Sudoeste 0 -- -- 89
2018-01-10 18:00:00 2.6 30 Oeste 51 Oeste 0 -- -- 89
2018-01-10 17:00:00 2.8 31 Oeste 56 Oeste 0 -- -- 87
2018-01-10 16:00:00 2.5 34 Oeste 53 Oeste 0 -- -- 88
2018-01-10 15:00:00 2.5 33 Oeste 59 Oeste 0 -- -- 88
2018-01-10 14:00:00 3 22 Oeste 48 Oeste 0 -- -- 88
2018-01-10 13:00:00 3.1 24 Oeste 42 Oeste 0 -- -- 88
2018-01-10 12:00:00 2.6 21 Sudoeste 36 Oeste 0 -- -- 90
2018-01-10 11:00:00 2.1 8 Oeste 31 Oeste 0 -- -- 93
2018-01-10 10:00:00 1.8 21 Oeste 49 Oeste 0 -- -- 93
2018-01-10 09:00:00 1.4 30 Oeste 44 Oeste 0 -- -- 97
2018-01-10 08:00:00 1.2 21 Oeste 35 Oeste 0 -- -- 97
2018-01-10 07:00:00 1.3 21 Oeste 33 Oeste 0 -- -- 96
2018-01-10 06:00:00 1.5 14 Oeste 28 Sudoeste 0 -- -- 95
2018-01-10 05:00:00 1.5 15 Sudoeste 32 Oeste 0 -- -- 94
2018-01-10 04:00:00 1.6 20 Oeste 38 Oeste 0 -- -- 93
2018-01-10 03:00:00 1.5 17 Oeste 35 Sudoeste 0 -- -- 93
2018-01-10 02:00:00 1.1 20 Sudoeste 31 Sudoeste 0.2 -- -- 96
2018-01-10 01:00:00 0.5 23 Sudoeste 32 Sudoeste 0.4 -- -- 96
2018-01-10 00:00:00 0.3 21 Sudoeste 30 Sudoeste 1.4 -- -- 95
2018-01-09 23:00:00 0.7 26 Sudoeste 38 Sudoeste 0.2 -- -- 91
2018-01-09 22:00:00 0.3 28 Sudoeste 39 Sudoeste 0.4 -- -- 88
2018-01-09 21:00:00 0.4 22 Sudoeste 40 Sudoeste 0 -- -- 86
2018-01-09 20:00:00 -0.1 28 Sudoeste 40 Sudoeste 0.2 -- -- 87
2018-01-09 19:00:00 -0.7 15 Sudoeste 33 Sudoeste 0.2 -- -- 93
2018-01-09 18:00:00 -0.2 26 Sudoeste 44 Sudoeste 0 -- -- 88
2018-01-09 17:00:00 1.6 18 Oeste 44 Sudoeste 0 -- -- 66
2018-01-09 16:00:00 2.5 28 Oeste 46 Sudoeste 0 -- -- 66
2018-01-09 15:00:00 2.4 24 Sudoeste 44 Sudoeste 0 -- -- 68
2018-01-09 14:00:00 2.2 28 Sudoeste 39 Sudoeste 0 -- -- 70
2018-01-09 13:00:00 1.8 23 Sudoeste 41 Sudoeste 0 -- -- 72
2018-01-09 12:00:00 1.7 22 Sudoeste 48 Sudoeste 0 -- -- 75
2018-01-09 11:00:00 0.3 35 Sudoeste 49 Sudoeste 0 -- -- 82
2018-01-09 10:00:00 -0.2 28 Sudoeste 49 Sudoeste 0 -- -- 81
2018-01-09 09:00:00 -1.2 28 Sudoeste 42 Sudoeste 0 -- -- 84
2018-01-09 08:00:00 -1.8 22 Sudoeste 33 Sudoeste 0 -- -- 86
2018-01-09 07:00:00 -2.2 6 Oeste 24 Sudoeste 0 -- -- 87
2018-01-09 06:00:00 -1.7 6 Noroeste 25 Sudoeste 0 -- -- 83
2018-01-09 05:00:00 -2.9 4 Nordeste 21 Noroeste 0 -- -- 81
2018-01-09 04:00:00 -3.9 5 Noroeste 13 Noroeste 0 -- -- 87
2018-01-09 03:00:00 -2.7 9 Noroeste 19 Oeste 0 -- -- 79
2018-01-09 02:00:00 -2 3 Norte 26 Oeste 0 -- -- 77
2018-01-09 01:00:00 -1.3 14 Oeste 22 Oeste 0 -- -- 74
2018-01-09 00:00:00 -1.5 3 Norte 10 Sudoeste 0 -- -- 78
2018-01-08 23:00:00 -2 4 Noroeste 15 Oeste 0 -- -- 82
2018-01-08 22:00:00 -1.7 10 Noroeste 16 Noroeste 0 -- -- 86
2018-01-08 21:00:00 -2 2 Sur 9 Noroeste 0 -- -- 77
2018-01-08 20:00:00 -2 3 Noroeste 9 Noroeste 0 -- -- 85
2018-01-08 19:00:00 -1.5 3 Noroeste 14 Oeste 0 -- -- 81
2018-01-08 18:00:00 -0.7 10 Noroeste 18 Oeste 0 -- -- 71
2018-01-08 17:00:00 0.7 9 Noroeste 13 Noroeste 0 -- -- 68
2018-01-08 16:00:00 1.5 9 Noroeste 12 Noroeste 0 -- -- 81
2018-01-08 15:00:00 2.6 4 Oeste 9 Noroeste 0 -- -- 75
2018-01-08 14:00:00 2.2 5 Noroeste 15 Noroeste 0 -- -- 76
2018-01-08 13:00:00 3.1 10 Noroeste 15 Norte 0 -- -- 73
2018-01-08 12:00:00 4.1 6 Noroeste 10 Norte 0 -- -- 66
2018-01-08 11:00:00 3.2 2 Norte 5 Norte 0 -- -- 70
2018-01-08 10:00:00 0.8 0 Calma 11 Sudoeste 0 -- -- 79
2018-01-08 09:00:00 -3.1 5 Sudoeste 16 Sudoeste 0 -- -- 92
2018-01-08 08:00:00 -3.6 6 Sudoeste 9 Sudoeste 0 -- -- 87
2018-01-08 07:00:00 -1.8 3 Sur 5 Sur 0 -- -- 78
2018-01-08 06:00:00 -1.9 3 Sur 7 Sudoeste 0 -- -- 84
2018-01-08 05:00:00 -2.6 2 Sur 8 Sur 0 -- -- 87
2018-01-08 04:00:00 -2.7 3 Sur 8 Sur 0 -- -- 84
2018-01-08 03:00:00 -2.7 5 Sur 7 Sur 0 -- -- 84
2018-01-08 02:00:00 -1.6 3 Sur 8 Sudeste 0 -- -- 84
2018-01-08 01:00:00 -2.2 2 Sudoeste 6 Sur 0 -- -- 86
2018-01-08 00:00:00 -2.4 0 Calma 6 Sudoeste 0 -- -- 88
2018-01-07 23:00:00 -3 3 Oeste 10 Sudoeste 0 -- -- 90
2018-01-07 22:00:00 -2.3 3 Noroeste 9 Oeste 0 -- -- 86
2018-01-07 21:00:00 -1.7 2 Nordeste 22 Sudoeste 0 -- -- 87
2018-01-07 20:00:00 -2 8 Sudoeste 12 Sudoeste 0 -- -- 93
2018-01-07 19:00:00 -1 5 Sur 12 Sudeste 0 -- -- 95
2018-01-07 18:00:00 0.4 8 Sudeste 16 Este 0 -- -- 95
2018-01-07 17:00:00 1.1 11 Este 17 Este 0 -- -- 91
2018-01-07 16:00:00 2.9 11 Sur 21 Sudeste 0.2 -- -- 78
2018-01-07 15:00:00 2.7 13 Sudeste 28 Sur 0 -- -- 79
2018-01-07 14:00:00 2.9 17 Sur 33 Sur 0 -- -- 83
2018-01-07 13:00:00 1.3 19 Sur 33 Sur 0 -- -- 88
2018-01-07 12:00:00 1.5 14 Sur 30 Sur 0 -- -- 91
2018-01-07 11:00:00 0.1 9 Sur 15 Sur 0 -- -- 100
2018-01-07 10:00:00 -0.9 3 Sudeste 5 Este 0 -- -- 99
2018-01-07 09:00:00 -1.8 3 Sudeste 6 Sudeste 0.2 -- -- 99
2018-01-07 08:00:00 -1.7 2 Nordeste 8 Nordeste 0.6 -- -- 99
2018-01-07 07:00:00 -1.7 0 Calma 5 Oeste 0.4 -- -- 99
2018-01-07 06:00:00 -2 3 Oeste 6 Noroeste 0 -- -- 99
2018-01-07 05:00:00 -2.2 3 Norte 9 Noroeste 0 -- -- 99
2018-01-07 04:00:00 -2.1 4 Norte 10 Noroeste 0 -- -- 100
2018-01-07 03:00:00 -2.1 5 Norte 10 Noroeste 0 -- -- 100
2018-01-07 02:00:00 -1.9 5 Noroeste 8 Noroeste 0 -- -- 100
2018-01-07 01:00:00 -1.8 7 Noroeste 9 Noroeste 0 -- -- 99
2018-01-07 00:00:00 -1.2 4 Nordeste 7 Este 0.2 -- -- 99
2018-01-06 23:00:00 -0.7 0 Calma 6 Sur 1.2 -- -- 99
2018-01-06 22:00:00 -0.6 2 Sudeste 7 Noroeste 1.2 -- -- 100
2018-01-06 21:00:00 -0.5 5 Noroeste 11 Nordeste 1.2 -- -- 99
2018-01-06 20:00:00 0.5 7 Este 19 Este 0.6 -- -- 99
2018-01-06 19:00:00 1.3 11 Sudeste 17 Sudeste 0 -- -- 99
2018-01-06 18:00:00 1.4 9 Sudeste 17 Sudeste 0 -- -- 99
2018-01-06 17:00:00 1.1 8 Este 16 Sudeste 0.2 -- -- 99
2018-01-06 16:00:00 1.4 9 Sudeste 21 Sudeste 0 -- -- 98
2018-01-06 15:00:00 1.9 13 Sudeste 24 Este 0 -- -- 98
2018-01-06 14:00:00 3 19 Este 31 Este 0 -- -- 97
2018-01-06 13:00:00 3.7 19 Este 27 Este 0 -- -- 97
2018-01-06 12:00:00 3.5 16 Este 24 Este 0 -- -- 97
2018-01-06 11:00:00 4 12 Este 21 Este 0 -- -- 96
2018-01-06 10:00:00 4.2 7 Sudeste 15 Sudeste 0 -- -- 97
2018-01-06 09:00:00 3.4 8 Sudeste 14 Sudeste 0 -- -- 98
2018-01-06 08:00:00 2.3 4 Sur 7 Sudeste 0 -- -- 98
2018-01-06 07:00:00 1.8 5 Sudoeste 27 Noroeste 0.2 -- -- 96
2018-01-06 06:00:00 3.6 16 Oeste 33 Sur 0 -- -- 87
2018-01-06 05:00:00 4.4 23 Sur 37 Sur 0 -- -- 91
2018-01-06 04:00:00 4.3 22 Sur 38 Sur 0 -- -- 92
2018-01-06 03:00:00 4.1 24 Sur 38 Sur 0 -- -- 90
2018-01-06 02:00:00 4.3 20 Sur 31 Sur 0 -- -- 88
2018-01-06 01:00:00 4.1 17 Sur 27 Sur 0 -- -- 87
2018-01-06 00:00:00 4.2 19 Sur 32 Sur 0 -- -- 87
2018-01-05 23:00:00 4.4 14 Sur 31 Sur 0 -- -- 84
2018-01-05 22:00:00 3.9 17 Sudoeste 25 Sudoeste 0 -- -- 84
2018-01-05 21:00:00 4.6 15 Sur 26 Sudoeste 0 -- -- 82
2018-01-05 20:00:00 4.6 19 Sudoeste 28 Sudoeste 0 -- -- 81
2018-01-05 19:00:00 5.2 21 Sudoeste 34 Sudoeste 0 -- -- 79
2018-01-05 18:00:00 6 15 Sudoeste 44 Sudoeste 0 -- -- 75
2018-01-05 17:00:00 7.1 26 Sudoeste 38 Oeste 0 -- -- 71
2018-01-05 16:00:00 7.9 21 Sudoeste 39 Sudoeste 0 -- -- 68
2018-01-05 15:00:00 7.8 32 Oeste 51 Oeste 0 -- -- 66
2018-01-05 14:00:00 8.4 24 Oeste 52 Oeste 0 -- -- 62
2018-01-05 13:00:00 9.2 29 Oeste 51 Noroeste 0 -- -- 62
2018-01-05 12:00:00 8.7 26 Oeste 46 Oeste 0 -- -- 67
2018-01-05 11:00:00 6 21 Oeste 51 Oeste 0 -- -- 78
2018-01-05 10:00:00 6.4 27 Oeste 51 Oeste 0 -- -- 77
2018-01-05 09:00:00 5.1 31 Oeste 64 Oeste 0 -- -- 85
2018-01-05 08:00:00 4.4 37 Sudoeste 58 Sudoeste 0 -- -- 89
2018-01-05 07:00:00 4.5 42 Oeste 67 Oeste 0 -- -- 87
2018-01-05 06:00:00 5.1 47 Oeste 75 Sudoeste 0 -- -- 87
2018-01-05 05:00:00 5.5 50 Oeste 71 Sudoeste 0 -- -- 88
2018-01-05 04:00:00 5.5 39 Oeste 58 Sudoeste 0 -- -- 89
2018-01-05 03:00:00 5.1 25 Oeste 48 Oeste 0 -- -- 92
2018-01-05 02:00:00 5.1 34 Oeste 54 Sudoeste 0 -- -- 91
2018-01-05 01:00:00 5.7 32 Oeste 53 Oeste 0 -- -- 92
2018-01-05 00:00:00 6 31 Oeste 49 Oeste 0 -- -- 91
2018-01-04 23:00:00 6.4 35 Oeste 58 Oeste 0 -- -- 91
2018-01-04 22:00:00 6.6 36 Oeste 54 Oeste 0 -- -- 90
2018-01-04 21:00:00 6.8 35 Oeste 60 Oeste 0 -- -- 87
2018-01-04 20:00:00 6.8 37 Oeste 65 Oeste 0 -- -- 85
2018-01-04 19:00:00 6.7 38 Oeste 65 Oeste 0 -- -- 85
2018-01-04 18:00:00 6.8 35 Oeste 62 Oeste 0 -- -- 85
2018-01-04 17:00:00 7.8 31 Oeste 58 Oeste 0 -- -- 81
2018-01-04 16:00:00 8.7 33 Oeste 54 Sudoeste 0 -- -- 77
2018-01-04 15:00:00 9.8 26 Noroeste 54 Oeste 0 -- -- 75
2018-01-04 14:00:00 10.9 35 Oeste 57 Oeste 0 -- -- 69
2018-01-04 13:00:00 10.5 32 Oeste 61 Oeste 0 -- -- 73
2018-01-04 12:00:00 9.5 36 Oeste 58 Oeste 0 -- -- 78
2018-01-04 11:00:00 8.9 37 Oeste 61 Oeste 0 -- -- 81
2018-01-04 10:00:00 7.7 30 Oeste 57 Oeste 0 -- -- 89
2018-01-04 09:00:00 7.3 24 Oeste 45 Oeste 0 -- -- 93
2018-01-04 08:00:00 7.7 25 Oeste 54 Oeste 0 -- -- 91
2018-01-04 07:00:00 8 35 Oeste 60 Noroeste 0 -- -- 90
2018-01-04 06:00:00 8.4 30 Oeste 57 Oeste 0 -- -- 88
2018-01-04 05:00:00 8.5 32 Oeste 50 Oeste 0 -- -- 89
2018-01-04 04:00:00 8.8 28 Oeste 46 Oeste 0 -- -- 89
2018-01-04 03:00:00 8.7 12 Oeste 40 Oeste 0 -- -- 91
2018-01-04 02:00:00 8.7 19 Oeste 34 Noroeste 0 -- -- 92
2018-01-04 01:00:00 9.1 19 Noroeste 37 Sudoeste 0 -- -- 91
2018-01-04 00:00:00 9 22 Oeste 55 Oeste 0 -- -- 91
2018-01-03 23:00:00 8.2 19 Oeste 40 Oeste 0 -- -- 95
2018-01-03 22:00:00 8.3 21 Oeste 40 Oeste 0 -- -- 93
2018-01-03 21:00:00 8.2 21 Oeste 41 Oeste 0 -- -- 93
2018-01-03 20:00:00 8.5 18 Oeste 46 Oeste 0 -- -- 91
2018-01-03 19:00:00 8.9 18 Oeste 48 Oeste 0 -- -- 90
2018-01-03 18:00:00 9.5 24 Oeste 52 Noroeste 0 -- -- 87
2018-01-03 17:00:00 9.8 20 Oeste 51 Noroeste 0 -- -- 87
2018-01-03 16:00:00 10.5 27 Oeste 46 Oeste 0 -- -- 82
2018-01-03 15:00:00 11 31 Oeste 43 Oeste 0 -- -- 80
2018-01-03 14:00:00 11 27 Oeste 41 Oeste 0 -- -- 80
2018-01-03 13:00:00 10.3 24 Noroeste 41 Oeste 0 -- -- 84
2018-01-03 12:00:00 10.1 30 Oeste 57 Oeste 0 -- -- 86
2018-01-03 11:00:00 9.7 37 Noroeste 54 Oeste 0 -- -- 88
2018-01-03 10:00:00 8.3 34 Oeste 55 Oeste 0 -- -- 93
2018-01-03 09:00:00 7.5 29 Oeste 50 Oeste 0 -- -- 96
2018-01-03 08:00:00 7.8 24 Oeste 50 Oeste 0 -- -- 96
2018-01-03 07:00:00 7.8 18 Oeste 39 Oeste 0 -- -- 95
2018-01-03 06:00:00 7.8 21 Oeste 48 Oeste 0 -- -- 94
2018-01-03 05:00:00 7.3 24 Oeste 56 Oeste 0 -- -- 95
2018-01-03 04:00:00 7.2 27 Oeste 53 Oeste 0 -- -- 95
2018-01-03 03:00:00 7.1 25 Oeste 52 Oeste 0 -- -- 93
2018-01-03 02:00:00 7.6 30 Oeste 49 Oeste 0 -- -- 93
2018-01-03 01:00:00 6.8 26 Oeste 41 Oeste 0 -- -- 95
2018-01-03 00:00:00 7 31 Oeste 57 Oeste 0 -- -- 94
2018-01-02 23:00:00 6.9 23 Oeste 49 Oeste 0 -- -- 91
2018-01-02 22:00:00 6.9 23 Oeste 43 Oeste 0 -- -- 90
2018-01-02 21:00:00 7 26 Oeste 41 Oeste 0 -- -- 88
2018-01-02 20:00:00 7 30 Oeste 47 Oeste 0 -- -- 87
2018-01-02 19:00:00 7.2 30 Oeste 49 Oeste 0 -- -- 87
2018-01-02 18:00:00 7.1 25 Oeste 46 Oeste 0 -- -- 87
2018-01-02 17:00:00 7.8 26 Oeste 51 Oeste 0 -- -- 84
2018-01-02 16:00:00 8.6 29 Oeste 49 Oeste 0 -- -- 79
2018-01-02 15:00:00 8.7 31 Oeste 54 Oeste 0 -- -- 78
2018-01-02 14:00:00 8.8 35 Oeste 59 Oeste 0 -- -- 75
2018-01-02 13:00:00 8.1 33 Oeste 54 Oeste 0 -- -- 75
2018-01-02 12:00:00 7 33 Oeste 51 Oeste 0 -- -- 79
2018-01-02 11:00:00 5.9 34 Oeste 61 Oeste 0 -- -- 83
2018-01-02 10:00:00 5.1 35 Oeste 53 Oeste 0 -- -- 85
2018-01-02 09:00:00 4.3 32 Oeste 62 Oeste 0 -- -- 85
2018-01-02 08:00:00 4.2 39 Oeste 63 Oeste 0 -- -- 88
2018-01-02 07:00:00 4.2 33 Oeste 54 Noroeste 0 -- -- 89
2018-01-02 06:00:00 4.5 26 Noroeste 48 Noroeste 0 -- -- 90
2018-01-02 05:00:00 4.6 21 Oeste 45 Oeste 0.2 -- -- 95
2018-01-02 04:00:00 4.6 15 Oeste 33 Sudoeste 0.2 -- -- 94
2018-01-02 03:00:00 4.8 21 Oeste 44 Oeste 0 -- -- 90
2018-01-02 02:00:00 5 26 Oeste 47 Oeste 0 -- -- 89
2018-01-02 01:00:00 5 26 Oeste 48 Oeste 0 -- -- 88
2018-01-02 00:00:00 4.8 30 Oeste 53 Oeste 0 -- -- 88
2018-01-01 23:00:00 4.9 30 Oeste 56 Oeste 0 -- -- 87
2018-01-01 22:00:00 4.8 33 Oeste 56 Oeste 0 -- -- 85
2018-01-01 21:00:00 4.4 32 Oeste 53 Oeste 0 -- -- 83
2018-01-01 20:00:00 4.3 29 Oeste 69 Oeste 0 -- -- 78
2018-01-01 19:00:00 4.4 40 Oeste 61 Oeste 0 -- -- 74
2018-01-01 18:00:00 4.8 30 Oeste 54 Oeste 0 -- -- 69
2018-01-01 17:00:00 5.6 35 Oeste 57 Oeste 0 -- -- 63
2018-01-01 16:00:00 6.5 31 Oeste 57 Oeste 0 -- -- 54
2018-01-01 15:00:00 6.4 36 Oeste 78 Oeste 0 -- -- 51
2018-01-01 14:00:00 6.6 41 Oeste 68 Oeste 0 -- -- 43
2018-01-01 13:00:00 6.8 37 Oeste 69 Oeste 0 -- -- 42
2018-01-01 12:00:00 5.2 36 Oeste 62 Oeste 0 -- -- 53
2018-01-01 11:00:00 3.8 33 Oeste 58 Sudoeste 0 -- -- 58
2018-01-01 10:00:00 1.7 35 Oeste 60 Oeste 0 -- -- 69
2018-01-01 09:00:00 -0.3 28 Oeste 45 Oeste 0 -- -- 81
2018-01-01 08:00:00 -0.7 17 Oeste 46 Oeste 0 -- -- 81
2018-01-01 07:00:00 -0.3 30 Oeste 51 Oeste 0 -- -- 81
2018-01-01 06:00:00 0.1 24 Oeste 45 Oeste 0 -- -- 80
2018-01-01 05:00:00 -0.3 24 Oeste 52 Noroeste 0 -- -- 84
2018-01-01 04:00:00 0 31 Oeste 60 Noroeste 0 -- -- 83
2018-01-01 03:00:00 0.1 41 Oeste 67 Oeste 0 -- -- 82
2018-01-01 02:00:00 0 35 Noroeste 57 Oeste 0 -- -- 82
2018-01-01 01:00:00 0.2 33 Oeste 53 Noroeste 0 -- -- 79
2018-01-01 00:00:00 1 36 Oeste 63 Noroeste 0 -- -- 81
2017-12-31 23:00:00 2.7 39 Noroeste 62 Oeste 0 -- -- 88
2017-12-31 22:00:00 3.1 31 Oeste 60 Noroeste 0 -- -- 89
2017-12-31 21:00:00 3.3 36 Noroeste 68 Oeste 0 -- -- 90
2017-12-31 20:00:00 3.9 40 Oeste 76 Oeste 1.2 -- -- 90
2017-12-31 19:00:00 6 27 Oeste 53 Sudoeste 0 -- -- 84
2017-12-31 18:00:00 6 24 Oeste 51 Sudoeste 0 -- -- 79
2017-12-31 17:00:00 6.7 18 Oeste 39 Oeste 0 -- -- 75
2017-12-31 16:00:00 7.2 25 Oeste 46 Oeste 0 -- -- 74
2017-12-31 15:00:00 8.6 26 Oeste 41 Noroeste 0 -- -- 69
2017-12-31 14:00:00 8.5 15 Oeste 43 Oeste 0 -- -- 69
2017-12-31 13:00:00 6.7 15 Oeste 31 Sudoeste 0 -- -- 77
2017-12-31 12:00:00 6.3 15 Oeste 30 Oeste 0 -- -- 69
2017-12-31 11:00:00 5.1 18 Oeste 39 Oeste 0 -- -- 78
2017-12-31 10:00:00 5 25 Oeste 40 Oeste 0 -- -- 77
2017-12-31 09:00:00 4.4 22 Sudoeste 32 Oeste 0 -- -- 70
2017-12-31 08:00:00 4.4 22 Sudoeste 31 Sudoeste 0 -- -- 74
2017-12-31 07:00:00 4.8 25 Sudoeste 32 Sudoeste 0 -- -- 74
2017-12-31 06:00:00 4 24 Sudoeste 32 Sudoeste 0 -- -- 86
2017-12-31 05:00:00 3.8 7 Sudoeste 26 Sudoeste 0 -- -- 91
2017-12-31 04:00:00 3.4 5 Noroeste 17 Sudoeste 0 -- -- 94
2017-12-31 03:00:00 4.1 11 Noroeste 15 Noroeste 0 -- -- 92
2017-12-31 02:00:00 4.3 7 Noroeste 30 Oeste 0 -- -- 92
2017-12-31 01:00:00 4.7 12 Oeste 37 Sudoeste 0 -- -- 94